PAWD

Details ICAO PAWD (SWD)
Name SEWARD
Region USA (Alaska)
Timezone America/Anchorage (UTC-9.0)
Plans Departing 40
Arriving 54
Stats Elevation 22 ft / 7 m (AMSL)
Location 60.129800° -149.420000°
Runways 2
Magnetic Variation 15.930° E
Sunrise 2018-12-18 19:00:26 UTC / 2018-12-18 10:00:26 Local
Sunset 2018-12-19 00:51:00 UTC / 2018-12-18 15:51:00 Local
Advertisement - Login to hide

Runways

ID Width Length Bearing (true/mag) Surface Threshold Overrun Markings Lighting
12 100 ft / 30 m 4,228 ft / 1,289 m 143.67° / 127.74° ASPHALT 0 ft / 0 m 0 ft / 0 m APP EDGE THRESHOLD
15 75 ft / 23 m 2,280 ft / 695 m 170.13° / 154.20° ASPHALT 0 ft / 0 m 0 ft / 0 m APP
30 100 ft / 30 m 4,228 ft / 1,289 m 323.68° / 307.75° ASPHALT 0 ft / 0 m 0 ft / 0 m APP EDGE THRESHOLD
33 75 ft / 23 m 2,280 ft / 695 m 350.13° / 334.20° ASPHALT 0 ft / 0 m 0 ft / 0 m APP

Map

Weather


0- 5 10 15 20 25 30 35+ Temperature / °C

Clouds and Precipitation
Forecast for 2018-12-19 06:00 UTC. Updated 2 hours ago

Ground ~20,000 ft ~40,000 ft Winds

METAR

PAWD 190530Z AUTO 34021G29KT 2 1/2SM HZ OVC029 M02/M06 A2897 RMK AO2 PK WND 35029/0454 SNEMM T10171061 TSNO PNO $

TAF

Not found

Frequencies

Unicom 122.90 MHz CTAF
Recorded 135.20 MHz ASOS
Warning: Do not use this data for real-world aviation or navigation. No guarantee of current accuracy is given.